Time;durP1;ratioP1;P1;durP2;ratioP2;P2;SDS_P1;SDS_P2;PMS_P1;PMS_P2;Temp;Humidity;BMP_temperature;BMP_pressure;BME280_temperature;BME280_humidity;BME280_pressure;Samples;Min_cycle;Max_cycle;Signal;HPM_P1;HPM_P2
2023/03/05 00:01:32;;;;;;;18.85;11.52;;;11.20;67.20;;;;;;6281206;22;20026;-81
2023/03/05 00:03:58;;;;;;;19.23;11.90;;;11.10;67.20;;;;;;6307365;22;20004;-81
2023/03/05 00:06:28;;;;;;;24.95;12.00;;;11.10;67.20;;;;;;6307283;22;20096;-81
2023/03/05 00:08:57;;;;;;;20.98;12.18;;;11.10;67.90;;;;;;6307315;22;20061;-81
2023/03/05 00:11:26;;;;;;;18.45;11.65;;;11.00;67.20;;;;;;6282929;22;20018;-81
2023/03/05 00:13:52;;;;;;;22.80;12.57;;;11.00;67.10;;;;;;6285142;22;20007;-81
2023/03/05 00:16:18;;;;;;;21.58;12.27;;;11.10;67.10;;;;;;6312693;22;20007;-82
2023/03/05 00:18:45;;;;;;;26.02;12.68;;;11.10;67.20;;;;;;6311354;22;20004;-81
2023/03/05 00:21:39;;;;;;;17.83;10.52;;;11.10;67.20;;;;;;6308559;22;20015;-82
2023/03/05 00:24:12;;;;;;;19.58;11.50;;;11.10;67.20;;;;;;6312097;22;20399;-82
2023/03/05 00:26:38;;;;;;;16.70;11.27;;;11.00;67.10;;;;;;6308026;22;20006;-81
2023/03/05 00:29:05;;;;;;;16.98;11.15;;;11.00;66.90;;;;;;6307422;22;20003;-79
2023/03/05 00:31:32;;;;;;;18.25;11.57;;;10.90;66.90;;;;;;6307363;22;20056;-82
2023/03/05 00:34:11;;;;;;;18.90;11.10;;;10.80;66.90;;;;;;6308774;22;20339;-82
2023/03/05 00:36:46;;;;;;;19.65;11.50;;;10.80;67.20;;;;;;6281923;22;19999;-82
2023/03/05 00:39:13;;;;;;;18.20;10.70;;;10.80;67.00;;;;;;6308827;22;19999;-82
2023/03/05 00:41:39;;;;;;;18.90;10.70;;;10.80;67.10;;;;;;6309455;22;20080;-80
2023/03/05 00:44:05;;;;;;;18.77;11.70;;;10.80;67.10;;;;;;6309099;22;20008;-80
2023/03/05 00:46:30;;;;;;;17.35;10.60;;;10.90;67.20;;;;;;6308636;22;19999;-81
2023/03/05 00:48:56;;;;;;;18.58;11.23;;;10.90;66.80;;;;;;6308507;22;20042;-81
2023/03/05 00:51:23;;;;;;;17.23;10.80;;;10.80;66.80;;;;;;6308752;22;20007;-81
2023/03/05 00:53:49;;;;;;;23.40;11.63;;;10.90;67.80;;;;;;6308992;22;20008;-82
2023/03/05 00:56:14;;;;;;;18.85;11.70;;;10.90;67.00;;;;;;6309449;22;20007;-81
2023/03/05 00:58:40;;;;;;;20.30;11.73;;;10.90;66.80;;;;;;6309004;22;20027;-81
2023/03/05 01:01:07;;;;;;;17.48;11.15;;;10.80;67.00;;;;;;6308350;22;20344;-81
2023/03/05 01:03:34;;;;;;;20.98;12.07;;;10.80;67.10;;;;;;6308666;22;20416;-80
2023/03/05 01:06:03;;;;;;;19.30;12.25;;;10.80;67.20;;;;;;6308647;22;20114;-81
2023/03/05 01:08:29;;;;;;;17.38;11.35;;;10.80;67.30;;;;;;6281358;22;20007;-81
2023/03/05 01:10:55;;;;;;;19.70;11.55;;;10.80;67.30;;;;;;6285648;22;20063;-79
2023/03/05 01:13:20;;;;;;;25.23;13.18;;;10.80;67.80;;;;;;6311969;22;20303;-82
2023/03/05 01:15:47;;;;;;;19.35;11.88;;;10.70;67.60;;;;;;6308768;22;20006;-82
2023/03/05 01:18:13;;;;;;;20.58;12.65;;;10.70;67.80;;;;;;6308498;22;20011;-82
2023/03/05 01:20:39;;;;;;;21.70;12.48;;;10.60;67.70;;;;;;6308801;22;20011;-81
2023/03/05 01:23:04;;;;;;;22.15;12.88;;;10.60;67.80;;;;;;6282697;22;20417;-80
2023/03/05 01:25:30;;;;;;;21.95;12.43;;;10.60;68.00;;;;;;6309500;22;19999;-80
2023/03/05 01:27:56;;;;;;;19.38;12.55;;;10.60;68.10;;;;;;6308606;22;20421;-82
2023/03/05 01:30:22;;;;;;;24.63;12.05;;;10.60;68.20;;;;;;6315456;22;19995;-80
2023/03/05 01:32:47;;;;;;;21.67;12.13;;;10.60;68.10;;;;;;6322117;22;20093;-82
2023/03/05 01:35:19;;;;;;;22.02;12.32;;;10.60;68.20;;;;;;6311302;22;19995;-81
2023/03/05 01:37:45;;;;;;;21.05;11.40;;;10.60;67.90;;;;;;6308421;22;20010;-81
2023/03/05 01:40:14;;;;;;;17.25;11.82;;;10.50;67.70;;;;;;6308188;22;20357;-82
2023/03/05 01:42:43;;;;;;;18.55;10.80;;;10.50;67.70;;;;;;6308702;22;19996;-82
2023/03/05 01:45:12;;;;;;;19.15;10.75;;;10.40;67.20;;;;;;6311140;22;20000;-82
2023/03/05 01:47:38;;;;;;;20.17;11.25;;;10.30;67.40;;;;;;6308961;22;20003;-81
2023/03/05 01:50:07;;;;;;;22.92;12.00;;;10.30;67.60;;;;;;6308393;22;20014;-80
2023/03/05 01:52:35;;;;;;;17.60;12.05;;;10.30;67.40;;;;;;6308411;22;20005;-81
2023/03/05 01:55:10;;;;;;;20.52;11.60;;;10.30;67.50;;;;;;6308102;22;20003;-80
2023/03/05 01:57:45;;;;;;;21.23;12.57;;;10.30;67.60;;;;;;6310132;22;20034;-81
2023/03/05 02:00:21;;;;;;;21.45;11.68;;;10.30;67.70;;;;;;6312685;22;19999;-79
2023/03/05 02:02:49;;;;;;;18.73;12.57;;;10.20;67.70;;;;;;6308181;22;20101;-80
2023/03/05 02:05:34;;;;;;;18.77;12.25;;;10.20;67.90;;;;;;6308077;22;19999;-81
2023/03/05 02:08:03;;;;;;;23.38;13.70;;;10.10;67.80;;;;;;6280664;22;20341;-81
2023/03/05 02:10:41;;;;;;;21.92;13.63;;;10.10;68.10;;;;;;6308320;22;20373;-80
2023/03/05 02:13:13;;;;;;;24.52;13.90;;;10.00;68.40;;;;;;6308332;22;20046;-81
2023/03/05 02:15:40;;;;;;;32.42;13.98;;;9.90;69.60;;;;;;6308019;22;20070;-80
2023/03/05 02:18:07;;;;;;;20.27;13.88;;;9.90;69.90;;;;;;6308048;22;20034;-81
2023/03/05 02:20:47;;;;;;;22.40;14.07;;;9.90;69.90;;;;;;6308228;22;20007;-81
2023/03/05 02:23:14;;;;;;;19.95;14.80;;;9.90;70.70;;;;;;6308476;22;20007;-81
2023/03/05 02:25:39;;;;;;;22.38;13.88;;;9.90;70.50;;;;;;6308198;22;20023;-81
2023/03/05 02:28:13;;;;;;;25.75;14.40;;;10.00;69.60;;;;;;6308092;22;20380;-80
2023/03/05 02:30:39;;;;;;;;;;;10.00;69.80;;;;;;6308061;22;20532;-80
2023/03/05 02:33:05;;;;;;;24.52;13.60;;;9.90;71.00;;;;;;6307892;22;19903;-81
2023/03/05 02:35:31;;;;;;;22.25;14.43;;;9.90;71.10;;;;;;6308029;22;20384;-79
2023/03/05 02:37:57;;;;;;;20.65;13.75;;;9.90;71.10;;;;;;6307645;22;20004;-81
2023/03/05 02:40:23;;;;;;;21.33;13.23;;;9.80;71.00;;;;;;6307533;22;20019;-82
2023/03/05 02:42:49;;;;;;;18.90;13.02;;;9.90;71.00;;;;;;6308713;22;20003;-81
2023/03/05 02:45:15;;;;;;;19.77;13.52;;;9.90;71.00;;;;;;6283877;22;20444;-81
2023/03/05 02:47:40;;;;;;;22.15;13.57;;;9.80;70.90;;;;;;6313092;22;20005;-81
2023/03/05 02:50:09;;;;;;;18.55;12.70;;;9.80;70.80;;;;;;6309755;22;20019;-81
2023/03/05 02:52:35;;;;;;;19.30;12.20;;;9.80;71.00;;;;;;6308224;22;20006;-82
2023/03/05 02:55:00;;;;;;;23.20;12.60;;;9.70;70.80;;;;;;6281535;22;19996;-82
2023/03/05 02:57:26;;;;;;;18.65;11.73;;;9.70;70.70;;;;;;6308607;22;20003;-80
2023/03/05 02:59:52;;;;;;;20.08;12.18;;;9.60;70.50;;;;;;6307716;22;20375;-81
2023/03/05 03:02:18;;;;;;;20.80;11.90;;;9.60;70.50;;;;;;6307185;22;20096;-82
2023/03/05 03:04:44;;;;;;;16.15;10.77;;;9.60;70.20;;;;;;6307894;22;20003;-81
2023/03/05 03:07:11;;;;;;;18.40;11.23;;;9.50;70.10;;;;;;6307045;22;20027;-81
2023/03/05 03:09:37;;;;;;;19.67;11.48;;;9.60;70.00;;;;;;6307332;22;19996;-82
2023/03/05 03:12:04;;;;;;;20.42;11.50;;;9.50;69.90;;;;;;6307584;22;19999;-81
2023/03/05 03:14:38;;;;;;;21.52;11.50;;;9.50;70.00;;;;;;6307621;22;20006;-81
2023/03/05 03:17:10;;;;;;;19.55;10.45;;;9.50;70.30;;;;;;6307066;22;20437;-81
2023/03/05 03:19:36;;;;;;;16.17;10.60;;;9.50;69.70;;;;;;6307257;22;20022;-80
2023/03/05 03:22:02;;;;;;;16.58;10.80;;;9.50;69.50;;;;;;6307825;22;20011;-80
2023/03/05 03:24:31;;;;;;;19.05;11.05;;;9.50;69.50;;;;;;6307562;22;20358;-81
2023/03/05 03:26:57;;;;;;;19.17;11.20;;;9.50;69.50;;;;;;6281281;22;20000;-80
2023/03/05 03:29:23;;;;;;;21.90;10.73;;;9.50;69.50;;;;;;6319993;22;20009;-80
2023/03/05 03:31:49;;;;;;;20.52;10.65;;;9.50;69.40;;;;;;6313587;22;20070;-79
2023/03/05 03:34:15;;;;;;;20.38;12.27;;;9.50;69.50;;;;;;6308878;22;20441;-79
2023/03/05 03:36:43;;;;;;;16.00;10.73;;;9.50;69.30;;;;;;6285020;22;20007;-81
2023/03/05 03:39:09;;;;;;;18.05;11.18;;;9.50;69.40;;;;;;6307521;22;20003;-80
2023/03/05 03:41:36;;;;;;;17.85;10.52;;;9.50;69.20;;;;;;6306794;22;20397;-79
2023/03/05 03:44:03;;;;;;;19.45;11.05;;;9.50;69.20;;;;;;6306804;22;20026;-79
2023/03/05 03:46:29;;;;;;;19.15;11.45;;;9.50;69.40;;;;;;6306879;22;20456;-80
2023/03/05 03:48:55;;;;;;;15.85;11.35;;;9.40;69.30;;;;;;6306977;22;20023;-80
2023/03/05 03:51:20;;;;;;;21.98;11.60;;;9.40;69.30;;;;;;6306486;22;20006;-81
2023/03/05 03:53:46;;;;;;;20.52;10.82;;;9.30;69.50;;;;;;6306644;22;20393;-82
2023/03/05 03:56:12;;;;;;;18.77;11.45;;;9.30;69.50;;;;;;6306892;22;20004;-79
2023/03/05 03:58:37;;;;;;;19.35;11.52;;;9.30;69.70;;;;;;6306734;22;20071;-80
2023/03/05 04:01:03;;;;;;;18.23;10.85;;;9.20;69.80;;;;;;6306736;22;20022;-79
2023/03/05 04:03:29;;;;;;;20.48;11.35;;;9.10;69.90;;;;;;6279929;22;20004;-80
2023/03/05 04:05:55;;;;;;;20.85;10.73;;;9.10;69.90;;;;;;6307271;22;20441;-80
2023/03/05 04:08:20;;;;;;;17.85;11.25;;;9.10;69.80;;;;;;6307346;22;20070;-80
2023/03/05 04:10:47;;;;;;;19.08;10.50;;;9.10;69.70;;;;;;6307731;22;20007;-80
2023/03/05 04:13:13;;;;;;;15.88;10.15;;;9.00;69.50;;;;;;6310260;22;20077;-80
2023/03/05 04:15:39;;;;;;;16.83;9.93;;;9.00;69.60;;;;;;6326076;22;20394;-80
2023/03/05 04:18:04;;;;;;;22.92;11.45;;;9.00;69.50;;;;;;6307914;22;20007;-79
2023/03/05 04:20:30;;;;;;;19.42;10.40;;;9.10;69.20;;;;;;6307234;22;19999;-80
2023/03/05 04:22:56;;;;;;;17.02;10.57;;;9.00;69.30;;;;;;6310290;22;19999;-80
2023/03/05 04:25:21;;;;;;;20.98;11.27;;;9.00;69.40;;;;;;6315346;22;20006;-80
2023/03/05 04:27:47;;;;;;;22.35;10.57;;;9.00;69.50;;;;;;6317501;22;20006;-82
2023/03/05 04:30:13;;;;;;;14.52;10.00;;;9.00;69.30;;;;;;6315094;22;20371;-80
2023/03/05 04:32:39;;;;;;;19.33;10.88;;;9.00;69.30;;;;;;6307325;22;20038;-80
2023/03/05 04:35:05;;;;;;;18.10;10.73;;;9.10;69.50;;;;;;6306572;22;20003;-80
2023/03/05 04:37:31;;;;;;;20.10;11.15;;;9.00;69.20;;;;;;6308055;22;20060;-80
2023/03/05 04:39:57;;;;;;;20.13;11.30;;;9.10;69.40;;;;;;6308177;22;20014;-80
2023/03/05 04:42:23;;;;;;;16.55;10.57;;;9.10;69.30;;;;;;6307036;22;20078;-80
2023/03/05 04:44:49;;;;;;;19.23;10.88;;;9.10;69.40;;;;;;6307421;22;19995;-79
2023/03/05 04:47:16;;;;;;;22.05;14.10;;;9.10;69.50;;;;;;6306821;22;20049;-82
2023/03/05 04:49:42;;;;;;;16.92;10.45;;;9.10;69.50;;;;;;6306941;22;20417;-80
2023/03/05 04:52:10;;;;;;;16.90;10.80;;;9.00;69.20;;;;;;6307141;22;20054;-80
2023/03/05 04:54:35;;;;;;;18.02;10.73;;;9.00;69.30;;;;;;6306640;22;20006;-80
2023/03/05 04:57:01;;;;;;;17.60;10.80;;;9.00;69.10;;;;;;6307014;22;19999;-80
2023/03/05 04:59:27;;;;;;;19.98;11.35;;;9.00;69.30;;;;;;6306172;22;19999;-81
2023/03/05 05:01:52;;;;;;;17.33;11.73;;;9.00;69.10;;;;;;6306274;22;20083;-80
2023/03/05 05:04:18;;;;;;;18.60;10.82;;;8.90;69.30;;;;;;6306314;22;20337;-80
2023/03/05 05:06:44;;;;;;;18.70;10.60;;;8.90;69.50;;;;;;6306465;22;20062;-80
2023/03/05 05:09:09;;;;;;;20.25;10.93;;;8.80;69.30;;;;;;6306259;22;19999;-80
2023/03/05 05:11:35;;;;;;;16.75;10.40;;;8.90;69.30;;;;;;6306876;22;20006;-79
2023/03/05 05:14:01;;;;;;;18.95;10.25;;;8.80;69.20;;;;;;6311144;22;20118;-81
2023/03/05 05:16:26;;;;;;;15.50;10.55;;;8.80;68.80;;;;;;6309053;22;20011;-80
2023/03/05 05:18:52;;;;;;;17.45;10.10;;;8.80;68.80;;;;;;6306940;22;20384;-79
2023/03/05 05:21:19;;;;;;;17.15;10.27;;;8.80;69.00;;;;;;6309327;22;20065;-80
2023/03/05 05:23:45;;;;;;;17.50;9.90;;;8.80;69.40;;;;;;6308375;22;19996;-80
2023/03/05 05:26:14;;;;;;;18.77;10.05;;;8.70;68.90;;;;;;6309489;22;20007;-80
2023/03/05 05:28:42;;;;;;;17.80;11.02;;;8.70;68.90;;;;;;6315193;22;19999;-81
2023/03/05 05:31:13;;;;;;;18.45;10.27;;;8.60;69.00;;;;;;6316420;22;20030;-79
2023/03/05 05:33:39;;;;;;;17.88;10.75;;;8.60;69.10;;;;;;6309122;22;20360;-81
2023/03/05 05:36:07;;;;;;;18.52;10.80;;;8.60;69.20;;;;;;6308259;22;20328;-81
2023/03/05 05:38:33;;;;;;;15.57;10.32;;;8.60;69.40;;;;;;6308157;22;20053;-82
2023/03/05 05:41:11;;;;;;;18.70;10.07;;;8.60;69.00;;;;;;6307947;22;20015;-81
2023/03/05 05:43:37;;;;;;;18.48;10.40;;;8.50;69.30;;;;;;6308039;22;20004;-81
2023/03/05 05:46:08;;;;;;;14.85;10.20;;;8.50;69.20;;;;;;6308284;22;20007;-80
2023/03/05 05:48:35;;;;;;;17.75;10.70;;;8.50;70.30;;;;;;6309117;22;20003;-80
2023/03/05 05:51:10;;;;;;;16.17;10.48;;;8.50;69.20;;;;;;6307948;22;20000;-80
2023/03/05 05:53:36;;;;;;;17.58;10.25;;;8.50;69.10;;;;;;6307633;22;20086;-80
2023/03/05 05:56:06;;;;;;;16.25;10.60;;;8.50;69.10;;;;;;6308109;22;20070;-81
2023/03/05 05:58:31;;;;;;;20.10;10.88;;;8.50;69.00;;;;;;6307929;22;20392;-81
2023/03/05 06:00:57;;;;;;;16.00;10.13;;;8.60;69.30;;;;;;6308047;22;20015;-81
2023/03/05 06:03:23;;;;;;;21.85;10.00;;;8.60;69.20;;;;;;6282434;22;20010;-81
2023/03/05 06:05:50;;;;;;;21.65;10.00;;;8.70;68.90;;;;;;6311728;22;20503;-81
2023/03/05 06:08:16;;;;;;;16.88;10.18;;;8.70;68.80;;;;;;6255620;22;20049;-80
2023/03/05 06:10:42;;;;;;;17.95;10.38;;;8.70;68.30;;;;;;6310334;22;19999;-80
2023/03/05 06:13:08;;;;;;;17.42;9.80;;;8.70;68.30;;;;;;6311063;22;20082;-80
2023/03/05 06:15:33;;;;;;;17.17;10.90;;;8.70;68.20;;;;;;6308602;22;20078;-81
2023/03/05 06:17:59;;;;;;;15.15;10.15;;;8.70;68.20;;;;;;6308168;22;19999;-80
2023/03/05 06:20:26;;;;;;;16.67;10.52;;;8.70;68.20;;;;;;6307844;22;20338;-81
2023/03/05 06:22:52;;;;;;;14.13;9.68;;;8.70;68.00;;;;;;6307841;22;20013;-81
2023/03/05 06:25:18;;;;;;;17.92;10.68;;;8.70;67.80;;;;;;6280257;22;20082;-78
2023/03/05 06:27:43;;;;;;;18.73;10.88;;;8.70;67.90;;;;;;6307893;22;20010;-79
2023/03/05 06:30:10;;;;;;;15.00;10.30;;;8.70;67.90;;;;;;6307608;22;20002;-81
2023/03/05 06:32:36;;;;;;;17.10;10.85;;;8.80;67.70;;;;;;6307637;22;20080;-81
2023/03/05 06:35:03;;;;;;;19.27;11.60;;;8.80;67.50;;;;;;6307613;22;20432;-81
2023/03/05 06:37:28;;;;;;;20.10;11.20;;;8.90;67.40;;;;;;6307854;22;20045;-82
2023/03/05 06:39:54;;;;;;;18.83;10.80;;;9.00;67.40;;;;;;6307932;22;19995;-80
2023/03/05 06:42:20;;;;;;;18.23;10.90;;;9.10;67.20;;;;;;6307767;22;20015;-81
2023/03/05 06:44:46;;;;;;;15.85;10.27;;;9.20;67.20;;;;;;6307979;22;20333;-81
2023/03/05 06:47:13;;;;;;;20.08;11.07;;;9.30;66.80;;;;;;6307772;22;20000;-81
2023/03/05 06:49:39;;;;;;;17.02;11.18;;;9.40;66.80;;;;;;6309414;22;20023;-80
2023/03/05 06:52:05;;;;;;;15.50;10.60;;;9.50;66.30;;;;;;6312756;22;20392;-80
2023/03/05 06:54:32;;;;;;;17.30;10.95;;;9.60;66.10;;;;;;6310421;22;20010;-81
2023/03/05 06:56:57;;;;;;;18.23;10.63;;;9.70;66.10;;;;;;6307756;22;19999;-81
2023/03/05 06:59:23;;;;;;;16.23;10.38;;;9.70;65.60;;;;;;6279768;22;20084;-81
2023/03/05 07:01:49;;;;;;;16.70;11.38;;;9.80;65.40;;;;;;6307106;22;20401;-81
2023/03/05 07:04:15;;;;;;;21.48;11.55;;;9.90;65.50;;;;;;6307596;22;20000;-81
2023/03/05 07:06:42;;;;;;;24.45;11.32;;;9.90;65.20;;;;;;6281073;22;20113;-81
2023/03/05 07:09:12;;;;;;;18.50;11.57;;;10.10;64.60;;;;;;6279753;22;20003;-79
2023/03/05 07:11:38;;;;;;;18.35;11.07;;;10.40;64.40;;;;;;6307314;22;20003;-80
2023/03/05 07:14:04;;;;;;;18.23;11.10;;;10.50;63.80;;;;;;6280114;22;20081;-81
2023/03/05 07:16:32;;;;;;;18.45;10.82;;;10.60;63.60;;;;;;6307643;22;20106;-82
2023/03/05 07:19:01;;;;;;;19.90;11.70;;;10.70;63.60;;;;;;6309781;22;20105;-80
2023/03/05 07:21:30;;;;;;;16.63;11.10;;;10.70;63.50;;;;;;6315485;22;20015;-80
2023/03/05 07:23:57;;;;;;;17.50;10.88;;;10.80;63.20;;;;;;6325964;22;20034;-80
2023/03/05 07:26:23;;;;;;;15.13;10.25;;;10.90;63.00;;;;;;6308332;22;19999;-81
2023/03/05 07:28:49;;;;;;;19.42;10.73;;;11.00;62.50;;;;;;6307437;22;20030;-80
2023/03/05 07:31:21;;;;;;;19.30;10.73;;;11.00;62.10;;;;;;6307010;22;20007;-82
2023/03/05 07:33:48;;;;;;;17.63;10.95;;;11.10;62.10;;;;;;6307236;22;20003;-80
2023/03/05 07:36:14;;;;;;;16.38;10.25;;;11.20;62.20;;;;;;6281273;22;20007;-82
2023/03/05 07:38:40;;;;;;;16.90;11.27;;;11.10;61.70;;;;;;6312571;22;20136;-81
2023/03/05 07:41:11;;;;;;;20.30;10.95;;;11.10;61.30;;;;;;6310102;22;20008;-82
2023/03/05 07:43:38;;;;;;;16.27;10.77;;;11.00;62.00;;;;;;6306896;22;20052;-81
2023/03/05 07:46:08;;;;;;;22.25;11.23;;;11.10;61.90;;;;;;6307188;22;20421;-82
2023/03/05 07:48:34;;;;;;;22.70;11.63;;;11.20;62.20;;;;;;6306963;22;20333;-81
2023/03/05 07:51:08;;;;;;;17.20;10.60;;;11.30;61.90;;;;;;6307009;22;20007;-82
2023/03/05 07:53:33;;;;;;;21.35;12.18;;;11.30;61.80;;;;;;6306860;22;20045;-80
2023/03/05 07:55:59;;;;;;;19.10;12.30;;;11.40;61.50;;;;;;6307298;22;20003;-81
2023/03/05 07:58:25;;;;;;;17.77;11.43;;;11.50;61.70;;;;;;6307962;22;20010;-81
2023/03/05 08:00:51;;;;;;;20.60;10.75;;;11.60;61.40;;;;;;6289834;22;20033;-80
2023/03/05 08:03:18;;;;;;;16.40;10.52;;;11.60;61.00;;;;;;6312271;22;20491;-80
2023/03/05 08:05:44;;;;;;;16.80;10.63;;;11.60;60.90;;;;;;6309793;22;20007;-82
2023/03/05 08:08:10;;;;;;;18.95;11.02;;;11.60;60.90;;;;;;6308835;22;20462;-81
2023/03/05 08:10:36;;;;;;;19.02;10.77;;;11.70;60.50;;;;;;6307370;22;20070;-82
2023/03/05 08:13:02;;;;;;;17.25;10.93;;;11.70;60.70;;;;;;6307074;22;20098;-81
2023/03/05 08:15:30;;;;;;;19.33;10.63;;;11.60;60.20;;;;;;6306941;22;20023;-82
2023/03/05 08:17:56;;;;;;;19.42;10.25;;;11.60;60.50;;;;;;6306526;22;20465;-80
2023/03/05 08:20:22;;;;;;;17.05;10.93;;;11.50;60.00;;;;;;6306349;22;20010;-83
2023/03/05 08:22:47;;;;;;;15.23;9.70;;;11.50;60.20;;;;;;6307325;22;20027;-82
2023/03/05 08:25:13;;;;;;;17.30;10.70;;;11.40;60.10;;;;;;6311922;22;19995;-82
2023/03/05 08:27:44;;;;;;;15.77;10.68;;;11.40;60.10;;;;;;6283075;22;20016;-81
2023/03/05 08:30:14;;;;;;;14.60;9.75;;;11.30;60.00;;;;;;6306707;22;20004;-81
2023/03/05 08:32:40;;;;;;;16.20;9.75;;;11.30;59.90;;;;;;6306742;22;20471;-80
2023/03/05 08:35:06;;;;;;;16.15;10.20;;;11.30;60.80;;;;;;6307240;22;20008;-81
2023/03/05 08:37:32;;;;;;;20.40;10.95;;;11.40;60.40;;;;;;6306932;22;20007;-81
2023/03/05 08:39:58;;;;;;;21.80;11.02;;;11.40;60.20;;;;;;6306536;22;20003;-81
2023/03/05 08:42:24;;;;;;;18.42;11.10;;;11.40;60.00;;;;;;6307090;22;20120;-83
2023/03/05 08:44:50;;;;;;;17.73;11.02;;;11.30;59.80;;;;;;6280629;22;20007;-82
2023/03/05 08:47:17;;;;;;;17.30;10.73;;;11.30;60.00;;;;;;6280369;22;20507;-79
2023/03/05 08:49:43;;;;;;;16.52;11.02;;;11.40;60.50;;;;;;6307120;22;20022;-82
2023/03/05 08:52:09;;;;;;;18.00;10.75;;;11.50;60.40;;;;;;6307200;22;20440;-81
2023/03/05 08:54:36;;;;;;;19.60;11.43;;;11.50;60.00;;;;;;6307557;22;19996;-83
2023/03/05 08:57:02;;;;;;;19.80;11.15;;;11.60;60.30;;;;;;6309241;22;20003;-81
2023/03/05 08:59:28;;;;;;;20.08;10.60;;;11.70;60.40;;;;;;6309301;22;20002;-80
2023/03/05 09:01:54;;;;;;;16.05;10.43;;;11.70;60.50;;;;;;6308599;22;20023;-82
2023/03/05 09:04:20;;;;;;;18.15;9.75;;;11.80;60.30;;;;;;6309094;22;20031;-81
2023/03/05 09:06:46;;;;;;;18.65;10.40;;;11.80;60.00;;;;;;6308905;22;20004;-80
2023/03/05 09:09:12;;;;;;;15.65;10.10;;;11.80;60.10;;;;;;6281793;22;20453;-83
2023/03/05 09:11:40;;;;;;;15.45;9.63;;;11.90;60.20;;;;;;6322184;22;20108;-84
2023/03/05 09:14:06;;;;;;;13.55;9.65;;;11.80;60.00;;;;;;6316976;22;19995;-80
2023/03/05 09:16:32;;;;;;;15.60;10.00;;;11.80;59.90;;;;;;6283860;22;20092;-79
2023/03/05 09:18:58;;;;;;;17.38;9.85;;;11.90;60.10;;;;;;6281345;22;20074;-81
2023/03/05 09:21:25;;;;;;;16.65;10.75;;;11.90;59.90;;;;;;6308515;22;20071;-80
2023/03/05 09:23:51;;;;;;;16.35;10.25;;;11.90;60.00;;;;;;6281315;22;20351;-80
2023/03/05 09:26:20;;;;;;;19.25;10.35;;;12.00;60.00;;;;;;6309095;22;19999;-82
2023/03/05 09:28:47;;;;;;;19.40;11.43;;;12.00;60.80;;;;;;6308585;22;20014;-82
2023/03/05 09:31:13;;;;;;;16.35;10.38;;;12.10;60.00;;;;;;6308691;22;20015;-81
2023/03/05 09:33:39;;;;;;;13.43;9.10;;;12.20;59.90;;;;;;6308988;22;20009;-81
2023/03/05 09:36:17;;;;;;;16.55;9.77;;;12.20;60.00;;;;;;6280780;22;20003;-80
2023/03/05 09:38:43;;;;;;;13.57;9.50;;;12.30;60.00;;;;;;6308633;22;19996;-81
2023/03/05 09:41:30;;;;;;;16.05;9.35;;;12.40;60.10;;;;;;6308296;22;20022;-81
2023/03/05 09:44:28;;;;;;;14.80;8.57;;;12.50;60.70;;;;;;6309051;22;20010;-81
2023/03/05 09:47:18;;;;;;;15.88;10.10;;;12.50;59.40;;;;;;6309586;22;19995;-80
2023/03/05 09:49:57;;;;;;;11.30;8.20;;;12.60;59.80;;;;;;6236765;22;20014;-81
2023/03/05 09:52:28;;;;;;;13.05;7.97;;;12.70;59.30;;;;;;6310164;22;20082;-82
2023/03/05 09:54:56;;;;;;;11.80;8.55;;;12.70;59.00;;;;;;6308625;22;19995;-81
2023/03/05 09:57:31;;;;;;;14.32;8.45;;;12.80;58.90;;;;;;6310487;22;20011;-81
2023/03/05 10:00:07;;;;;;;15.93;8.88;;;12.80;58.30;;;;;;6311717;22;20006;-80
2023/03/05 10:02:39;;;;;;;17.48;10.07;;;12.90;58.60;;;;;;6313427;22;20026;-81
2023/03/05 10:05:07;;;;;;;13.23;9.02;;;13.00;58.60;;;;;;6311865;22;20007;-83
2023/03/05 10:07:38;;;;;;;16.90;9.27;;;13.10;58.30;;;;;;6309129;22;19999;-82
2023/03/05 10:10:16;;;;;;;12.60;8.88;;;13.20;58.10;;;;;;6309711;22;20033;-82
2023/03/05 10:12:49;;;;;;;14.18;9.18;;;13.40;58.00;;;;;;6309911;22;20013;-82
2023/03/05 10:15:15;;;;;;;16.40;8.50;;;13.40;57.70;;;;;;6310448;22;20030;-81
2023/03/05 10:18:11;;;;;;;11.95;7.75;;;13.50;56.90;;;;;;6308563;22;20000;-81
2023/03/05 10:20:58;;;;;;;12.23;8.00;;;13.50;56.20;;;;;;6309402;22;19999;-82
2023/03/05 10:23:53;;;;;;;14.98;8.20;;;13.60;56.10;;;;;;6309234;22;20011;-81
2023/03/05 10:26:34;;;;;;;12.73;8.10;;;13.70;55.70;;;;;;6198626;22;20024;-81
2023/03/05 10:29:20;;;;;;;12.60;7.85;;;13.80;55.30;;;;;;6308401;22;20015;-81
2023/03/05 10:31:57;;;;;;;13.73;7.10;;;13.90;55.10;;;;;;6309161;22;19999;-83
2023/03/05 10:34:46;;;;;;;12.32;7.07;;;14.00;55.20;;;;;;6309247;22;19999;-82
2023/03/05 10:37:27;;;;;;;13.82;7.18;;;14.10;54.70;;;;;;6252170;22;20077;-81
2023/03/05 10:40:11;;;;;;;12.10;6.70;;;14.20;54.40;;;;;;6284152;22;20015;-81
2023/03/05 10:43:01;;;;;;;11.73;6.63;;;14.30;53.90;;;;;;6282931;22;20349;-82
2023/03/05 10:45:37;;;;;;;11.48;6.57;;;14.40;53.20;;;;;;6309024;22;20326;-81
2023/03/05 10:48:24;;;;;;;12.65;6.72;;;14.40;52.30;;;;;;6313580;22;20007;-82
2023/03/05 10:50:56;;;;;;;13.43;7.18;;;14.40;52.00;;;;;;6311759;22;20008;-81
2023/03/05 10:53:30;;;;;;;12.80;7.00;;;14.50;51.10;;;;;;6312348;22;20000;-81
2023/03/05 10:56:00;;;;;;;12.70;7.53;;;14.60;50.40;;;;;;6312971;22;19995;-82
2023/03/05 10:58:26;;;;;;;14.25;7.05;;;14.60;50.00;;;;;;6312544;22;19999;-81
2023/03/05 11:01:22;;;;;;;12.48;8.20;;;14.60;49.70;;;;;;6283503;22;20046;-82
2023/03/05 11:04:00;;;;;;;12.23;6.43;;;14.70;49.30;;;;;;6322224;22;20002;-82
2023/03/05 11:06:33;;;;;;;12.38;6.72;;;14.80;50.40;;;;;;6321831;22;20413;-81
2023/03/05 11:09:18;;;;;;;7.68;4.45;;;14.90;49.40;;;;;;6310762;22;20006;-81
2023/03/05 11:12:02;;;;;;;10.63;5.13;;;15.00;48.40;;;;;;6310841;22;20007;-82
2023/03/05 11:14:31;;;;;;;10.60;5.72;;;15.20;48.40;;;;;;6310416;22;19999;-82
2023/03/05 11:17:02;;;;;;;11.77;5.50;;;15.30;47.80;;;;;;6311240;22;20028;-82
2023/03/05 11:19:32;;;;;;;12.30;5.70;;;15.40;48.80;;;;;;6310915;22;20035;-82
2023/03/05 11:22:17;;;;;;;9.90;5.82;;;15.50;48.60;;;;;;6310524;22;20426;-82
2023/03/05 11:25:01;;;;;;;8.88;5.45;;;15.60;48.10;;;;;;6308859;22;20428;-82
2023/03/05 11:27:40;;;;;;;12.15;6.63;;;15.70;46.90;;;;;;6309542;22;19999;-81
2023/03/05 11:30:35;;;;;;;10.98;5.43;;;15.80;46.80;;;;;;6307573;22;20074;-82
2023/03/05 11:33:21;;;;;;;12.18;6.22;;;15.90;46.50;;;;;;6306361;22;20007;-83
2023/03/05 11:35:48;;;;;;;10.02;5.97;;;15.90;46.00;;;;;;6309776;22;20002;-82
2023/03/05 11:38:26;;;;;;;12.60;6.32;;;15.90;45.30;;;;;;6312981;22;20007;-81
2023/03/05 11:40:55;;;;;;;11.13;6.40;;;16.00;45.80;;;;;;6312124;22;20012;-84
2023/03/05 11:43:23;;;;;;;13.85;7.32;;;16.20;46.10;;;;;;6286881;22;20509;-82
2023/03/05 11:46:04;;;;;;;11.52;6.38;;;16.20;46.00;;;;;;6281682;22;20585;-82
2023/03/05 11:48:35;;;;;;;11.63;6.53;;;16.20;45.50;;;;;;6283413;22;20011;-83
2023/03/05 11:51:06;;;;;;;13.73;6.80;;;16.30;46.00;;;;;;6307232;22;20031;-85
2023/03/05 11:53:35;;;;;;;11.82;6.53;;;16.30;45.90;;;;;;6307313;22;20517;-83
2023/03/05 11:56:31;;;;;;;13.23;6.82;;;16.40;45.70;;;;;;6307303;22;20011;-82
2023/03/05 11:59:27;;;;;;;13.57;5.93;;;16.50;45.30;;;;;;6306764;22;20452;-83
2023/03/05 12:01:56;;;;;;;9.07;5.55;;;16.60;45.70;;;;;;6296496;22;20054;-81
2023/03/05 12:04:22;;;;;;;15.45;6.50;;;16.70;45.90;;;;;;6307135;22;20000;-81
2023/03/05 12:06:53;;;;;;;9.77;5.68;;;16.80;46.30;;;;;;6279586;22;19999;-82
2023/03/05 12:09:40;;;;;;;11.70;6.30;;;16.80;46.30;;;;;;6307045;22;20337;-83
2023/03/05 12:12:29;;;;;;;8.80;5.28;;;16.90;46.50;;;;;;6307096;22;19999;-82
2023/03/05 12:15:01;;;;;;;12.90;5.82;;;16.80;46.40;;;;;;6307499;22;20495;-82
2023/03/05 12:17:32;;;;;;;9.77;5.57;;;16.90;46.80;;;;;;6309300;22;20006;-82
2023/03/05 12:20:03;;;;;;;10.20;5.32;;;16.90;46.90;;;;;;6310950;22;20490;-82
2023/03/05 12:22:48;;;;;;;8.00;4.97;;;16.90;47.10;;;;;;6283511;22;20542;-81
2023/03/05 12:25:31;;;;;;;14.15;6.15;;;17.10;47.00;;;;;;6313472;22;20019;-81
2023/03/05 12:27:57;;;;;;;11.48;5.80;;;17.10;46.80;;;;;;6312139;22;20003;-82
2023/03/05 12:30:41;;;;;;;14.75;5.72;;;17.20;46.80;;;;;;6309378;22;20060;-83
2023/03/05 12:33:36;;;;;;;;;;;17.20;46.20;;;;;;6310036;22;20006;-82
2023/03/05 12:36:20;;;;;;;;;;;17.20;45.70;;;;;;6276179;22;19899;-81
2023/03/05 12:38:55;;;;;;;12.02;5.57;;;17.20;44.90;;;;;;6308815;22;19899;-81
2023/03/05 12:41:33;;;;;;;10.77;5.28;;;17.30;46.50;;;;;;6309101;22;20084;-81
2023/03/05 12:44:04;;;;;;;12.52;4.47;;;17.30;46.40;;;;;;6309412;22;20004;-83
2023/03/05 12:46:37;;;;;;;11.40;4.93;;;17.40;46.30;;;;;;6308898;22;20006;-81
2023/03/05 12:49:18;;;;;;;12.30;4.90;;;17.40;45.70;;;;;;6281650;22;20086;-81